sensor_id;sensor_type;location;lat;lon;timestamp;pressure;altitude;pressure_sealevel;temperature;humidity
65175;BME280;51761;42.126;24.752;2023-04-08T00:00:01;99832.44;;;9.18;56.88
65175;BME280;51761;42.126;24.752;2023-04-08T00:02:27;99833.31;;;9.08;58.54
65175;BME280;51761;42.126;24.752;2023-04-08T00:04:53;99835.78;;;8.92;59.59
65175;BME280;51761;42.126;24.752;2023-04-08T00:07:18;99841.63;;;9.15;55.51
65175;BME280;51761;42.126;24.752;2023-04-08T00:09:44;99842.31;;;9.26;54.83
65175;BME280;51761;42.126;24.752;2023-04-08T00:12:10;99845.56;;;9.21;55.56
65175;BME280;51761;42.126;24.752;2023-04-08T00:14:35;99822.97;;;9.05;57.02
65175;BME280;51761;42.126;24.752;2023-04-08T00:17:02;99833.81;;;8.86;57.07
65175;BME280;51761;42.126;24.752;2023-04-08T00:19:28;99848.50;;;8.93;56.82
65175;BME280;51761;42.126;24.752;2023-04-08T00:21:53;99844.47;;;9.05;55.95
65175;BME280;51761;42.126;24.752;2023-04-08T00:24:19;99842.13;;;9.00;56.20
65175;BME280;51761;42.126;24.752;2023-04-08T00:26:44;99841.28;;;9.03;56.10
65175;BME280;51761;42.126;24.752;2023-04-08T00:29:09;99830.22;;;8.92;56.13
65175;BME280;51761;42.126;24.752;2023-04-08T00:31:35;99827.03;;;8.94;56.07
65175;BME280;51761;42.126;24.752;2023-04-08T00:34:01;99834.97;;;8.99;56.06
65175;BME280;51761;42.126;24.752;2023-04-08T00:36:26;99834.16;;;8.98;56.27
65175;BME280;51761;42.126;24.752;2023-04-08T00:38:52;99831.38;;;8.98;56.53
65175;BME280;51761;42.126;24.752;2023-04-08T00:41:18;99840.53;;;8.92;57.05
65175;BME280;51761;42.126;24.752;2023-04-08T00:43:43;99853.63;;;9.02;57.07
65175;BME280;51761;42.126;24.752;2023-04-08T00:46:08;99854.47;;;8.99;57.62
65175;BME280;51761;42.126;24.752;2023-04-08T00:48:34;99828.69;;;8.84;57.54
65175;BME280;51761;42.126;24.752;2023-04-08T00:51:00;99853.25;;;8.96;58.40
65175;BME280;51761;42.126;24.752;2023-04-08T00:53:26;99850.56;;;8.79;59.76
65175;BME280;51761;42.126;24.752;2023-04-08T00:55:51;99862.09;;;8.84;60.60
65175;BME280;51761;42.126;24.752;2023-04-08T00:58:17;99852.16;;;8.76;61.16
65175;BME280;51761;42.126;24.752;2023-04-08T01:00:46;99833.97;;;8.61;62.36
65175;BME280;51761;42.126;24.752;2023-04-08T01:03:57;99863.25;;;8.87;63.25
65175;BME280;51761;42.126;24.752;2023-04-08T01:06:38;99868.06;;;8.83;64.06
65175;BME280;51761;42.126;24.752;2023-04-08T01:09:08;99884.81;;;8.79;64.84
65175;BME280;51761;42.126;24.752;2023-04-08T01:11:37;99856.19;;;8.72;65.53
65175;BME280;51761;42.126;24.752;2023-04-08T01:14:06;99853.84;;;8.63;66.41
65175;BME280;51761;42.126;24.752;2023-04-08T01:16:37;99878.03;;;8.80;66.57
65175;BME280;51761;42.126;24.752;2023-04-08T01:19:07;99877.69;;;8.68;67.21
65175;BME280;51761;42.126;24.752;2023-04-08T01:21:36;99860.63;;;8.48;67.96
65175;BME280;51761;42.126;24.752;2023-04-08T01:24:10;99859.84;;;8.44;68.31
65175;BME280;51761;42.126;24.752;2023-04-08T01:26:41;99873.34;;;8.56;68.95
65175;BME280;51761;42.126;24.752;2023-04-08T01:29:09;99871.38;;;8.50;69.22
65175;BME280;51761;42.126;24.752;2023-04-08T01:31:35;99871.38;;;8.46;69.62
65175;BME280;51761;42.126;24.752;2023-04-08T01:34:04;99874.94;;;8.50;69.95
65175;BME280;51761;42.126;24.752;2023-04-08T01:36:31;99868.59;;;8.46;70.53
65175;BME280;51761;42.126;24.752;2023-04-08T01:38:59;99843.22;;;8.30;71.25
65175;BME280;51761;42.126;24.752;2023-04-08T01:41:26;99876.97;;;8.39;71.40
65175;BME280;51761;42.126;24.752;2023-04-08T01:43:53;99813.09;;;7.97;71.63
65175;BME280;51761;42.126;24.752;2023-04-08T01:46:20;99864.31;;;8.21;72.00
65175;BME280;51761;42.126;24.752;2023-04-08T01:48:47;99876.59;;;8.37;72.04
65175;BME280;51761;42.126;24.752;2023-04-08T01:51:14;99877.41;;;8.34;72.07
65175;BME280;51761;42.126;24.752;2023-04-08T01:53:40;99880.97;;;8.38;72.58
65175;BME280;51761;42.126;24.752;2023-04-08T01:56:11;99871.47;;;8.22;73.29
65175;BME280;51761;42.126;24.752;2023-04-08T01:58:40;99885.34;;;8.43;73.55
65175;BME280;51761;42.126;24.752;2023-04-08T02:01:16;99894.88;;;8.38;73.99
65175;BME280;51761;42.126;24.752;2023-04-08T02:03:43;99903.59;;;8.47;73.71
65175;BME280;51761;42.126;24.752;2023-04-08T02:06:09;99900.03;;;8.43;74.12
65175;BME280;51761;42.126;24.752;2023-04-08T02:08:35;99895.69;;;8.28;74.90
65175;BME280;51761;42.126;24.752;2023-04-08T02:11:02;99897.28;;;8.29;75.32
65175;BME280;51761;42.126;24.752;2023-04-08T02:13:31;99866.69;;;8.08;75.58
65175;BME280;51761;42.126;24.752;2023-04-08T02:16:03;99888.13;;;8.29;76.08
65175;BME280;51761;42.126;24.752;2023-04-08T02:18:33;99899.28;;;8.22;76.33
65175;BME280;51761;42.126;24.752;2023-04-08T02:21:12;99900.06;;;8.26;76.82
65175;BME280;51761;42.126;24.752;2023-04-08T02:23:40;99902.84;;;8.26;77.40
65175;BME280;51761;42.126;24.752;2023-04-08T02:26:12;99901.25;;;8.35;77.41
65175;BME280;51761;42.126;24.752;2023-04-08T02:28:39;99903.63;;;8.30;77.90
65175;BME280;51761;42.126;24.752;2023-04-08T02:31:10;99897.69;;;8.28;78.20
65175;BME280;51761;42.126;24.752;2023-04-08T02:33:39;99905.25;;;8.27;78.50
65175;BME280;51761;42.126;24.752;2023-04-08T02:36:05;99894.91;;;8.21;79.30
65175;BME280;51761;42.126;24.752;2023-04-08T02:38:32;99902.47;;;8.24;79.36
65175;BME280;51761;42.126;24.752;2023-04-08T02:40:58;99905.22;;;8.13;79.90
65175;BME280;51761;42.126;24.752;2023-04-08T02:43:24;99876.25;;;7.93;80.38
65175;BME280;51761;42.126;24.752;2023-04-08T02:46:08;99882.22;;;7.88;80.84
65175;BME280;51761;42.126;24.752;2023-04-08T02:48:35;99889.75;;;8.05;81.09
65175;BME280;51761;42.126;24.752;2023-04-08T02:51:01;99894.91;;;8.10;80.79
65175;BME280;51761;42.126;24.752;2023-04-08T02:53:26;99892.13;;;8.03;81.45
65175;BME280;51761;42.126;24.752;2023-04-08T02:55:52;99902.84;;;8.15;81.56
65175;BME280;51761;42.126;24.752;2023-04-08T02:58:17;99908.41;;;8.08;81.50
65175;BME280;51761;42.126;24.752;2023-04-08T03:00:43;99908.81;;;8.10;82.06
65175;BME280;51761;42.126;24.752;2023-04-08T03:03:08;99919.53;;;8.15;82.03
65175;BME280;51761;42.126;24.752;2023-04-08T03:05:34;99915.19;;;8.18;82.02
65175;BME280;51761;42.126;24.752;2023-04-08T03:07:59;99912.00;;;8.02;82.53
65175;BME280;51761;42.126;24.752;2023-04-08T03:10:25;99928.69;;;8.19;82.37
65175;BME280;51761;42.126;24.752;2023-04-08T03:12:51;99877.47;;;7.78;82.82
65175;BME280;51761;42.126;24.752;2023-04-08T03:15:16;99925.09;;;8.15;82.98
65175;BME280;51761;42.126;24.752;2023-04-08T03:17:42;99929.09;;;8.21;82.88
65175;BME280;51761;42.126;24.752;2023-04-08T03:20:08;99902.84;;;8.12;82.84
65175;BME280;51761;42.126;24.752;2023-04-08T03:22:34;99927.91;;;8.29;82.23
65175;BME280;51761;42.126;24.752;2023-04-08T03:25:00;99918.75;;;8.29;82.30
65175;BME280;51761;42.126;24.752;2023-04-08T03:27:25;99931.06;;;8.17;82.94
65175;BME280;51761;42.126;24.752;2023-04-08T03:29:51;99915.97;;;8.01;83.50
65175;BME280;51761;42.126;24.752;2023-04-08T03:32:17;99921.13;;;8.09;83.86
65175;BME280;51761;42.126;24.752;2023-04-08T03:34:43;99928.28;;;8.07;83.84
65175;BME280;51761;42.126;24.752;2023-04-08T03:37:08;99935.44;;;8.01;84.54
65175;BME280;51761;42.126;24.752;2023-04-08T03:39:34;99917.56;;;7.98;84.02
65175;BME280;51761;42.126;24.752;2023-04-08T03:42:00;99933.06;;;8.06;84.21
65175;BME280;51761;42.126;24.752;2023-04-08T03:44:27;99928.28;;;8.10;83.99
65175;BME280;51761;42.126;24.752;2023-04-08T03:46:53;99909.63;;;7.97;84.00
65175;BME280;51761;42.126;24.752;2023-04-08T03:49:18;99929.47;;;8.13;84.07
65175;BME280;51761;42.126;24.752;2023-04-08T03:51:44;99911.63;;;7.96;84.38
65175;BME280;51761;42.126;24.752;2023-04-08T03:54:09;99921.56;;;7.97;84.74
65175;BME280;51761;42.126;24.752;2023-04-08T03:56:35;99920.75;;;8.00;84.44
65175;BME280;51761;42.126;24.752;2023-04-08T03:59:00;99934.25;;;8.16;84.07
65175;BME280;51761;42.126;24.752;2023-04-08T04:01:26;99942.59;;;8.23;83.94
65175;BME280;51761;42.126;24.752;2023-04-08T04:03:51;99953.72;;;8.19;84.31
65175;BME280;51761;42.126;24.752;2023-04-08T04:06:17;99946.97;;;8.20;84.38
65175;BME280;51761;42.126;24.752;2023-04-08T04:08:42;99940.63;;;8.30;84.46
65175;BME280;51761;42.126;24.752;2023-04-08T04:11:07;99933.84;;;8.14;83.82
65175;BME280;51761;42.126;24.752;2023-04-08T04:13:33;99939.44;;;8.24;84.05
65175;BME280;51761;42.126;24.752;2023-04-08T04:15:58;99939.44;;;8.17;84.04
65175;BME280;51761;42.126;24.752;2023-04-08T04:18:24;99952.91;;;8.15;84.46
65175;BME280;51761;42.126;24.752;2023-04-08T04:20:49;99953.72;;;8.12;84.65
65175;BME280;51761;42.126;24.752;2023-04-08T04:23:15;99958.06;;;8.13;84.52
65175;BME280;51761;42.126;24.752;2023-04-08T04:25:41;99943.00;;;8.07;84.81
65175;BME280;51761;42.126;24.752;2023-04-08T04:28:07;99953.72;;;8.02;84.93
65175;BME280;51761;42.126;24.752;2023-04-08T04:30:36;99964.06;;;8.26;84.22
65175;BME280;51761;42.126;24.752;2023-04-08T04:33:03;99957.31;;;8.20;84.66
65175;BME280;51761;42.126;24.752;2023-04-08T04:35:28;99952.16;;;8.22;84.41
65175;BME280;51761;42.126;24.752;2023-04-08T04:37:54;99938.22;;;8.11;84.52
65175;BME280;51761;42.126;24.752;2023-04-08T04:40:19;99956.50;;;8.30;84.57
65175;BME280;51761;42.126;24.752;2023-04-08T04:42:45;99951.34;;;8.28;84.24
65175;BME280;51761;42.126;24.752;2023-04-08T04:45:10;99954.53;;;8.23;84.56
65175;BME280;51761;42.126;24.752;2023-04-08T04:47:36;99943.78;;;8.15;84.64
65175;BME280;51761;42.126;24.752;2023-04-08T04:50:02;99935.44;;;8.22;85.47
65175;BME280;51761;42.126;24.752;2023-04-08T04:52:27;99959.28;;;8.40;85.13
65175;BME280;51761;42.126;24.752;2023-04-08T04:54:53;99958.06;;;8.48;84.20
65175;BME280;51761;42.126;24.752;2023-04-08T04:57:18;99958.44;;;8.61;84.98
65175;BME280;51761;42.126;24.752;2023-04-08T04:59:44;99960.03;;;8.65;83.41
65175;BME280;51761;42.126;24.752;2023-04-08T05:02:09;99963.16;;;8.78;82.86
65175;BME280;51761;42.126;24.752;2023-04-08T05:04:35;99964.75;;;8.79;83.24
65175;BME280;51761;42.126;24.752;2023-04-08T05:07:01;99937.75;;;8.69;82.77
65175;BME280;51761;42.126;24.752;2023-04-08T05:09:28;99947.25;;;8.75;82.99
65175;BME280;51761;42.126;24.752;2023-04-08T05:11:53;99972.69;;;8.87;83.08
65175;BME280;51761;42.126;24.752;2023-04-08T05:14:19;99950.47;;;8.70;83.37
65175;BME280;51761;42.126;24.752;2023-04-08T05:16:44;99964.75;;;8.82;83.54
65175;BME280;51761;42.126;24.752;2023-04-08T05:19:10;99980.97;;;9.05;82.77
65175;BME280;51761;42.126;24.752;2023-04-08T05:21:36;99955.22;;;8.69;83.49
65175;BME280;51761;42.126;24.752;2023-04-08T05:24:01;99979.03;;;8.95;82.93
65175;BME280;51761;42.126;24.752;2023-04-08T05:26:26;99973.03;;;8.96;82.98
65175;BME280;51761;42.126;24.752;2023-04-08T05:28:52;99985.78;;;8.97;82.59
65175;BME280;51761;42.126;24.752;2023-04-08T05:31:18;99982.19;;;9.00;82.93
65175;BME280;51761;42.126;24.752;2023-04-08T05:33:44;99986.16;;;8.99;82.62
65175;BME280;51761;42.126;24.752;2023-04-08T05:36:10;99985.00;;;8.97;82.95
65175;BME280;51761;42.126;24.752;2023-04-08T05:38:36;99983.75;;;9.01;82.95
65175;BME280;51761;42.126;24.752;2023-04-08T05:41:02;99994.47;;;9.06;83.02
65175;BME280;51761;42.126;24.752;2023-04-08T05:43:27;99984.97;;;9.04;82.44
65175;BME280;51761;42.126;24.752;2023-04-08T05:45:53;99982.19;;;9.00;82.37
65175;BME280;51761;42.126;24.752;2023-04-08T05:48:18;99988.91;;;9.10;82.52
65175;BME280;51761;42.126;24.752;2023-04-08T05:50:44;99986.09;;;9.17;82.52
65175;BME280;51761;42.126;24.752;2023-04-08T05:53:10;99986.84;;;9.28;81.53
65175;BME280;51761;42.126;24.752;2023-04-08T05:55:36;99992.38;;;9.35;81.09
65175;BME280;51761;42.126;24.752;2023-04-08T05:58:01;99969.00;;;9.11;81.58
65175;BME280;51761;42.126;24.752;2023-04-08T06:00:27;99974.19;;;9.02;82.13
65175;BME280;51761;42.126;24.752;2023-04-08T06:02:52;99982.47;;;9.23;82.49
65175;BME280;51761;42.126;24.752;2023-04-08T06:05:18;99991.09;;;9.49;81.93
65175;BME280;51761;42.126;24.752;2023-04-08T06:07:44;99988.25;;;9.60;81.05
65175;BME280;51761;42.126;24.752;2023-04-08T06:10:09;99982.66;;;9.60;81.14
65175;BME280;51761;42.126;24.752;2023-04-08T06:12:36;99986.22;;;9.64;80.30
65175;BME280;51761;42.126;24.752;2023-04-08T06:15:04;99980.03;;;9.97;78.86
65175;BME280;51761;42.126;24.752;2023-04-08T06:17:30;99955.72;;;9.97;78.43
65175;BME280;51761;42.126;24.752;2023-04-08T06:19:56;99986.28;;;10.15;78.05
65175;BME280;51761;42.126;24.752;2023-04-08T06:22:21;99993.34;;;10.30;76.43
65175;BME280;51761;42.126;24.752;2023-04-08T06:24:47;99998.78;;;10.44;76.37
65175;BME280;51761;42.126;24.752;2023-04-08T06:27:13;99992.84;;;10.42;75.36
65175;BME280;51761;42.126;24.752;2023-04-08T06:29:38;99974.66;;;10.64;75.11
65175;BME280;51761;42.126;24.752;2023-04-08T06:32:04;99991.84;;;10.99;73.31
65175;BME280;51761;42.126;24.752;2023-04-08T06:34:30;99994.19;;;11.67;88.76
65175;BME280;51761;42.126;24.752;2023-04-08T06:36:56;99964.34;;;12.33;100.00
65175;BME280;51761;42.126;24.752;2023-04-08T06:39:21;99989.44;;;13.05;93.76
65175;BME280;51761;42.126;24.752;2023-04-08T06:41:47;99969.66;;;12.93;69.59
65175;BME280;51761;42.126;24.752;2023-04-08T06:44:12;99996.69;;;13.03;67.16
65175;BME280;51761;42.126;24.752;2023-04-08T06:46:38;99992.06;;;13.32;71.22
65175;BME280;51761;42.126;24.752;2023-04-08T06:49:03;99984.16;;;13.82;79.77
65175;BME280;51761;42.126;24.752;2023-04-08T06:51:31;99973.28;;;13.84;67.90
65175;BME280;51761;42.126;24.752;2023-04-08T06:53:57;99972.00;;;13.88;64.09
65175;BME280;51761;42.126;24.752;2023-04-08T06:56:22;99986.44;;;13.71;64.57
65175;BME280;51761;42.126;24.752;2023-04-08T06:58:50;99990.84;;;13.88;65.93
65175;BME280;51761;42.126;24.752;2023-04-08T07:01:16;99973.50;;;14.09;65.08
65175;BME280;51761;42.126;24.752;2023-04-08T07:03:42;99978.13;;;13.99;61.66
65175;BME280;51761;42.126;24.752;2023-04-08T07:06:07;99983.59;;;14.54;68.04
65175;BME280;51761;42.126;24.752;2023-04-08T07:08:33;99980.16;;;15.07;71.33
65175;BME280;51761;42.126;24.752;2023-04-08T07:10:58;99985.22;;;15.93;61.78
65175;BME280;51761;42.126;24.752;2023-04-08T07:13:24;99995.81;;;16.39;54.02
65175;BME280;51761;42.126;24.752;2023-04-08T07:15:50;99995.31;;;17.00;50.40
65175;BME280;51761;42.126;24.752;2023-04-08T07:18:16;99999.47;;;18.02;48.28
65175;BME280;51761;42.126;24.752;2023-04-08T07:20:41;100002.13;;;18.27;47.83
65175;BME280;51761;42.126;24.752;2023-04-08T07:23:07;100003.91;;;17.52;47.33
65175;BME280;51761;42.126;24.752;2023-04-08T07:25:33;99989.22;;;17.23;48.63
65175;BME280;51761;42.126;24.752;2023-04-08T07:28:02;99989.38;;;16.39;50.21
65175;BME280;51761;42.126;24.752;2023-04-08T07:30:27;99998.84;;;16.20;50.43
65175;BME280;51761;42.126;24.752;2023-04-08T07:32:53;99983.06;;;15.85;51.09
65175;BME280;51761;42.126;24.752;2023-04-08T07:35:20;100001.50;;;15.49;52.98
65175;BME280;51761;42.126;24.752;2023-04-08T07:37:48;100004.16;;;15.40;52.72
65175;BME280;51761;42.126;24.752;2023-04-08T07:40:14;99998.31;;;15.18;52.64
65175;BME280;51761;42.126;24.752;2023-04-08T07:42:39;99993.81;;;14.92;53.90
65175;BME280;51761;42.126;24.752;2023-04-08T07:45:05;100002.22;;;15.90;51.49
65175;BME280;51761;42.126;24.752;2023-04-08T07:47:31;100002.84;;;16.69;50.04
65175;BME280;51761;42.126;24.752;2023-04-08T07:49:56;99984.22;;;17.27;46.80
65175;BME280;51761;42.126;24.752;2023-04-08T07:52:22;99994.06;;;17.01;47.58
65175;BME280;51761;42.126;24.752;2023-04-08T07:54:47;99994.34;;;17.15;47.67
65175;BME280;51761;42.126;24.752;2023-04-08T07:57:13;99994.16;;;17.10;47.64
65175;BME280;51761;42.126;24.752;2023-04-08T07:59:38;99971.44;;;16.45;48.49
65175;BME280;51761;42.126;24.752;2023-04-08T08:02:04;100005.59;;;15.97;49.91
65175;BME280;51761;42.126;24.752;2023-04-08T08:04:30;100008.78;;;15.46;51.29
65175;BME280;51761;42.126;24.752;2023-04-08T08:06:55;99983.59;;;15.68;52.31
65175;BME280;51761;42.126;24.752;2023-04-08T08:09:21;100009.44;;;15.38;53.93
65175;BME280;51761;42.126;24.752;2023-04-08T08:11:46;100000.19;;;15.09;53.46
65175;BME280;51761;42.126;24.752;2023-04-08T08:14:13;100004.78;;;15.60;53.89
65175;BME280;51761;42.126;24.752;2023-04-08T08:16:39;100004.69;;;16.25;53.13
65175;BME280;51761;42.126;24.752;2023-04-08T08:19:04;100007.06;;;16.27;50.83
65175;BME280;51761;42.126;24.752;2023-04-08T08:21:36;100009.41;;;16.28;49.90
65175;BME280;51761;42.126;24.752;2023-04-08T08:24:01;99981.81;;;16.23;49.67
65175;BME280;51761;42.126;24.752;2023-04-08T08:26:27;99996.25;;;16.38;49.92
65175;BME280;51761;42.126;24.752;2023-04-08T08:28:53;100003.22;;;16.58;49.48
65175;BME280;51761;42.126;24.752;2023-04-08T08:31:19;99984.44;;;15.93;50.39
65175;BME280;51761;42.126;24.752;2023-04-08T08:33:44;99998.59;;;15.77;51.36
65175;BME280;51761;42.126;24.752;2023-04-08T08:36:11;99996.09;;;15.67;53.27
65175;BME280;51761;42.126;24.752;2023-04-08T08:38:36;99999.56;;;15.46;53.66
65175;BME280;51761;42.126;24.752;2023-04-08T08:41:02;99997.69;;;15.80;50.88
65175;BME280;51761;42.126;24.752;2023-04-08T08:43:29;99987.22;;;16.43;49.08
65175;BME280;51761;42.126;24.752;2023-04-08T08:45:57;99984.69;;;17.68;46.56
65175;BME280;51761;42.126;24.752;2023-04-08T08:48:23;99977.19;;;18.04;43.97
65175;BME280;51761;42.126;24.752;2023-04-08T08:50:49;99993.66;;;17.66;45.57
65175;BME280;51761;42.126;24.752;2023-04-08T08:53:15;99965.72;;;18.38;43.70
65175;BME280;51761;42.126;24.752;2023-04-08T08:55:40;99985.28;;;18.24;43.59
65175;BME280;51761;42.126;24.752;2023-04-08T08:58:06;99969.25;;;18.21;43.96
65175;BME280;51761;42.126;24.752;2023-04-08T09:00:37;99975.88;;;17.87;45.50
65175;BME280;51761;42.126;24.752;2023-04-08T09:03:24;99992.16;;;17.83;44.77
65175;BME280;51761;42.126;24.752;2023-04-08T09:05:59;99988.28;;;17.59;44.19
65175;BME280;51761;42.126;24.752;2023-04-08T09:08:27;99983.19;;;16.90;46.49
65175;BME280;51761;42.126;24.752;2023-04-08T09:10:54;99989.84;;;16.50;48.30
65175;BME280;51761;42.126;24.752;2023-04-08T09:13:24;99992.97;;;16.27;46.42
65175;BME280;51761;42.126;24.752;2023-04-08T09:16:02;99987.25;;;16.05;48.24
65175;BME280;51761;42.126;24.752;2023-04-08T09:18:29;99995.13;;;15.86;47.25
65175;BME280;51761;42.126;24.752;2023-04-08T09:20:55;99973.25;;;15.65;48.54
65175;BME280;51761;42.126;24.752;2023-04-08T09:23:20;99987.88;;;15.60;49.76
65175;BME280;51761;42.126;24.752;2023-04-08T09:25:46;99988.84;;;15.41;49.72
65175;BME280;51761;42.126;24.752;2023-04-08T09:28:18;99970.94;;;15.06;50.82
65175;BME280;51761;42.126;24.752;2023-04-08T09:30:47;99972.81;;;14.97;49.80
65175;BME280;51761;42.126;24.752;2023-04-08T09:33:12;99974.75;;;15.00;51.56
65175;BME280;51761;42.126;24.752;2023-04-08T09:35:38;99980.72;;;14.86;51.38
65175;BME280;51761;42.126;24.752;2023-04-08T09:38:04;99964.75;;;14.83;49.35
65175;BME280;51761;42.126;24.752;2023-04-08T09:40:33;99977.63;;;14.96;49.52
65175;BME280;51761;42.126;24.752;2023-04-08T09:43:03;99981.66;;;14.67;50.26
65175;BME280;51761;42.126;24.752;2023-04-08T09:45:31;99982.00;;;14.69;50.33
65175;BME280;51761;42.126;24.752;2023-04-08T09:48:17;99966.66;;;14.86;49.68
65175;BME280;51761;42.126;24.752;2023-04-08T09:50:49;99962.94;;;15.05;49.89
65175;BME280;51761;42.126;24.752;2023-04-08T09:53:35;99988.81;;;15.28;48.70
65175;BME280;51761;42.126;24.752;2023-04-08T09:56:06;99984.44;;;15.40;48.57
65175;BME280;51761;42.126;24.752;2023-04-08T09:58:38;99992.03;;;15.55;49.51
65175;BME280;51761;42.126;24.752;2023-04-08T10:01:07;99983.81;;;15.48;48.89
65175;BME280;51761;42.126;24.752;2023-04-08T10:03:48;99970.84;;;15.38;50.07
65175;BME280;51761;42.126;24.752;2023-04-08T10:06:16;99967.50;;;15.27;51.11
65175;BME280;51761;42.126;24.752;2023-04-08T10:08:44;99981.31;;;15.50;50.06
65175;BME280;51761;42.126;24.752;2023-04-08T10:11:10;99974.88;;;15.37;50.99
65175;BME280;51761;42.126;24.752;2023-04-08T10:13:35;99969.38;;;15.46;50.34
65175;BME280;51761;42.126;24.752;2023-04-08T10:18:46;99975.41;;;15.86;50.36
65175;BME280;51761;42.126;24.752;2023-04-08T10:21:31;99939.03;;;15.79;49.87
65175;BME280;51761;42.126;24.752;2023-04-08T10:23:57;99972.34;;;16.30;49.90
65175;BME280;51761;42.126;24.752;2023-04-08T10:26:32;99959.38;;;16.32;51.24
65175;BME280;51761;42.126;24.752;2023-04-08T10:31:45;99947.22;;;16.35;49.62
65175;BME280;51761;42.126;24.752;2023-04-08T10:34:33;99952.59;;;16.55;49.70
65175;BME280;51761;42.126;24.752;2023-04-08T10:36:58;99957.50;;;16.76;48.36
65175;BME280;51761;42.126;24.752;2023-04-08T10:39:26;99944.78;;;16.93;47.17
65175;BME280;51761;42.126;24.752;2023-04-08T10:41:51;99949.59;;;17.05;46.16
65175;BME280;51761;42.126;24.752;2023-04-08T10:44:22;99933.66;;;17.11;46.66
65175;BME280;51761;42.126;24.752;2023-04-08T10:46:50;99945.25;;;17.13;45.60
65175;BME280;51761;42.126;24.752;2023-04-08T10:49:16;99922.59;;;17.25;44.81
65175;BME280;51761;42.126;24.752;2023-04-08T10:51:43;99937.38;;;17.29;45.34
65175;BME280;51761;42.126;24.752;2023-04-08T10:54:11;99925.38;;;17.38;45.28
65175;BME280;51761;42.126;24.752;2023-04-08T10:56:50;99936.41;;;17.23;45.65
65175;BME280;51761;42.126;24.752;2023-04-08T10:59:29;99919.25;;;16.16;47.34
65175;BME280;51761;42.126;24.752;2023-04-08T11:01:56;99934.25;;;16.13;48.27
65175;BME280;51761;42.126;24.752;2023-04-08T11:04:22;99921.06;;;16.10;48.62
65175;BME280;51761;42.126;24.752;2023-04-08T11:06:48;99922.97;;;16.25;48.83
65175;BME280;51761;42.126;24.752;2023-04-08T11:09:14;99917.44;;;16.47;47.53
65175;BME280;51761;42.126;24.752;2023-04-08T11:11:42;99921.50;;;16.46;49.42
65175;BME280;51761;42.126;24.752;2023-04-08T11:14:08;99906.16;;;16.47;47.88
65175;BME280;51761;42.126;24.752;2023-04-08T11:16:34;99906.16;;;16.47;48.99
65175;BME280;51761;42.126;24.752;2023-04-08T11:19:02;99896.97;;;15.96;47.39
65175;BME280;51761;42.126;24.752;2023-04-08T11:21:30;99916.16;;;15.89;48.44
65175;BME280;51761;42.126;24.752;2023-04-08T11:23:56;99919.31;;;15.79;48.30
65175;BME280;51761;42.126;24.752;2023-04-08T11:26:22;99883.81;;;15.81;48.51
65175;BME280;51761;42.126;24.752;2023-04-08T11:28:48;99893.22;;;16.12;48.12
65175;BME280;51761;42.126;24.752;2023-04-08T11:31:16;99901.00;;;16.08;47.94
65175;BME280;51761;42.126;24.752;2023-04-08T11:33:52;99879.53;;;15.89;47.60
65175;BME280;51761;42.126;24.752;2023-04-08T11:36:18;99891.22;;;16.00;47.95
65175;BME280;51761;42.126;24.752;2023-04-08T11:38:44;99886.25;;;16.16;47.57
65175;BME280;51761;42.126;24.752;2023-04-08T11:41:09;99887.34;;;16.31;47.14
65175;BME280;51761;42.126;24.752;2023-04-08T11:43:36;99879.69;;;16.19;47.71
65175;BME280;51761;42.126;24.752;2023-04-08T11:46:11;99882.06;;;16.21;47.92
65175;BME280;51761;42.126;24.752;2023-04-08T11:48:38;99871.03;;;16.01;48.57
65175;BME280;51761;42.126;24.752;2023-04-08T11:51:07;99876.72;;;15.89;49.00
65175;BME280;51761;42.126;24.752;2023-04-08T11:53:34;99856.28;;;16.10;48.97
65175;BME280;51761;42.126;24.752;2023-04-08T11:56:21;99858.06;;;16.16;50.35
65175;BME280;51761;42.126;24.752;2023-04-08T11:58:48;99858.22;;;16.47;48.09
65175;BME280;51761;42.126;24.752;2023-04-08T12:01:14;99836.44;;;16.47;47.41
65175;BME280;51761;42.126;24.752;2023-04-08T12:04:00;99857.69;;;16.27;47.93
65175;BME280;51761;42.126;24.752;2023-04-08T12:06:27;99854.50;;;16.03;49.16
65175;BME280;51761;42.126;24.752;2023-04-08T12:08:55;99847.16;;;16.06;49.36
65175;BME280;51761;42.126;24.752;2023-04-08T12:11:23;99848.50;;;16.01;49.65
65175;BME280;51761;42.126;24.752;2023-04-08T12:13:48;99823.59;;;16.12;49.44
65175;BME280;51761;42.126;24.752;2023-04-08T12:16:15;99833.91;;;16.62;48.99
65175;BME280;51761;42.126;24.752;2023-04-08T12:18:41;99847.16;;;16.74;47.90
65175;BME280;51761;42.126;24.752;2023-04-08T12:21:06;99841.31;;;16.68;48.28
65175;BME280;51761;42.126;24.752;2023-04-08T12:23:32;99839.41;;;16.87;49.09
65175;BME280;51761;42.126;24.752;2023-04-08T12:25:57;99832.16;;;16.77;47.09
65175;BME280;51761;42.126;24.752;2023-04-08T12:28:23;99834.56;;;16.87;47.52
65175;BME280;51761;42.126;24.752;2023-04-08T12:30:49;99836.16;;;16.88;47.48
65175;BME280;51761;42.126;24.752;2023-04-08T12:33:14;99810.28;;;16.90;47.05
65175;BME280;51761;42.126;24.752;2023-04-08T12:35:39;99825.31;;;16.87;47.70
65175;BME280;51761;42.126;24.752;2023-04-08T12:38:05;99820.72;;;16.80;47.56
65175;BME280;51761;42.126;24.752;2023-04-08T12:40:31;99806.91;;;16.52;48.50
65175;BME280;51761;42.126;24.752;2023-04-08T12:42:56;99817.50;;;16.91;48.30
65175;BME280;51761;42.126;24.752;2023-04-08T12:45:22;99796.53;;;16.70;47.04
65175;BME280;51761;42.126;24.752;2023-04-08T12:47:47;99813.50;;;16.79;47.17
65175;BME280;51761;42.126;24.752;2023-04-08T12:50:13;99809.09;;;16.78;47.73
65175;BME280;51761;42.126;24.752;2023-04-08T12:52:39;99807.38;;;17.02;47.38
65175;BME280;51761;42.126;24.752;2023-04-08T12:55:05;99805.03;;;16.79;47.67
65175;BME280;51761;42.126;24.752;2023-04-08T12:57:30;99811.53;;;16.89;48.12
65175;BME280;51761;42.126;24.752;2023-04-08T12:59:56;99803.88;;;16.89;48.14